Time,TemperatureF,DewpointF,PressureIn,WindDirection,WindDirectionDegrees,WindSpeedMPH,WindSpeedGustMPH,Humidity,HourlyPrecipIn,Conditions,Clouds,dailyrainin,SolarRadiationWatts/m^2,SoftwareType,DateUTC
2013-08-01 00:03:00,68.0,66.0,29.95,NW,304,3.0,-999.0,94,-99.99,,,-99.99,0.000000,,2013-08-01 04:03:00,
2013-08-01 00:13:00,67.0,65.0,29.96,NW,304,1.0,-999.0,94,-99.99,,,-99.99,0.000000,,2013-08-01 04:13:00,
2013-08-01 00:22:00,67.0,65.0,29.96,NW,304,1.0,-999.0,94,-99.99,,,-99.99,0.000000,,2013-08-01 04:22:00,
2013-08-01 00:33:00,67.0,65.0,29.96,NW,304,1.0,-999.0,94,-99.99,,,-99.99,0.000000,,2013-08-01 04:33:00,
2013-08-01 00:43:00,67.0,65.0,29.96,NW,304,0.0,-999.0,94,-99.99,,,-99.99,0.000000,,2013-08-01 04:43:00,
2013-08-01 00:53:00,66.0,65.0,29.94,NW,304,0.0,-999.0,95,-99.99,,,-99.99,0.000000,,2013-08-01 04:53:00,
2013-08-01 01:02:00,66.0,65.0,29.94,NW,304,0.0,-999.0,95,-99.99,,,-99.99,0.000000,,2013-08-01 05:02:00,
2013-08-01 01:13:00,66.0,65.0,29.94,NW,304,0.0,-999.0,95,-99.99,,,-99.99,0.000000,,2013-08-01 05:13:00,
2013-08-01 01:23:00,65.0,64.0,29.95,WNW,303,0.0,-999.0,95,-99.99,,,-99.99,0.000000,,2013-08-01 05:23:00,
2013-08-01 01:33:00,65.0,64.0,29.96,WNW,296,7.0,-999.0,96,-99.99,,,-99.99,0.000000,,2013-08-01 05:33:00,
2013-08-01 01:43:00,65.0,64.0,29.96,WNW,296,7.0,-999.0,96,-99.99,,,-99.99,0.000000,,2013-08-01 05:43:00,
2013-08-01 01:53:00,65.0,64.0,29.95,WNW,296,4.0,-999.0,96,-99.99,,,-99.99,0.000000,,2013-08-01 05:53:00,
2013-08-01 02:02:00,65.0,64.0,29.95,WNW,296,4.0,-999.0,96,-99.99,,,-99.99,0.000000,,2013-08-01 06:02:00,
2013-08-01 02:12:00,65.0,64.0,29.95,WNW,296,4.0,-999.0,96,-99.99,,,-99.99,0.000000,,2013-08-01 06:12:00,
2013-08-01 02:23:00,64.0,63.0,29.94,WNW,296,0.0,-999.0,96,-99.99,,,-99.99,0.000000,,2013-08-01 06:23:00,
2013-08-01 02:33:00,63.0,62.0,29.94,WNW,295,0.0,-999.0,96,-99.99,,,-99.99,0.000000,,2013-08-01 06:33:00,
2013-08-01 02:43:00,63.0,62.0,29.94,WNW,295,0.0,-999.0,96,-99.99,,,-99.99,0.000000,,2013-08-01 06:43:00,
2013-08-01 02:53:00,63.0,62.0,29.94,WNW,296,0.0,-999.0,96,-99.99,,,-99.99,0.000000,,2013-08-01 06:53:00,
2013-08-01 03:02:00,63.0,62.0,29.93,WNW,296,0.0,-999.0,96,-99.99,,,-99.99,0.000000,,2013-08-01 07:02:00,
2013-08-01 03:12:00,63.0,62.0,29.93,WNW,296,0.0,-999.0,96,-99.99,,,-99.99,0.000000,,2013-08-01 07:12:00,
2013-08-01 03:23:00,62.0,61.0,29.93,WNW,296,0.0,-999.0,96,-99.99,,,-99.99,0.000000,,2013-08-01 07:23:00,
2013-08-01 03:32:00,62.0,61.0,29.94,WNW,296,0.0,-999.0,96,-99.99,,,-99.99,0.000000,,2013-08-01 07:32:00,
2013-08-01 03:43:00,62.0,61.0,29.94,WNW,296,0.0,-999.0,96,-99.99,,,-99.99,0.000000,,2013-08-01 07:43:00,
2013-08-01 03:55:00,62.0,61.0,29.93,WNW,296,0.0,-999.0,97,-99.99,,,-99.99,0.000000,,2013-08-01 07:55:00,
2013-08-01 04:16:00,62.0,61.0,29.94,WNW,296,0.0,-999.0,97,-99.99,,,-99.99,0.000000,,2013-08-01 08:16:00,
2013-08-01 04:46:00,63.0,62.0,29.95,WNW,295,2.0,-999.0,97,-99.99,,,-99.99,0.000000,,2013-08-01 08:46:00,
2013-08-01 05:09:00,62.0,61.0,29.95,WNW,296,2.0,-999.0,97,-99.99,,,-99.99,0.000000,,2013-08-01 09:09:00,
2013-08-01 05:17:00,62.0,61.0,29.95,WNW,296,0.0,-999.0,97,-99.99,,,-99.99,0.000000,,2013-08-01 09:17:00,
2013-08-01 05:34:00,62.0,61.0,29.94,WNW,296,5.0,-999.0,98,-99.99,,,-99.99,0.000000,,2013-08-01 09:34:00,
2013-08-01 05:44:00,62.0,61.0,29.94,WNW,294,5.0,-999.0,98,-99.99,,,-99.99,0.000000,,2013-08-01 09:44:00,
2013-08-01 05:53:00,62.0,61.0,29.94,WNW,294,5.0,-999.0,98,-99.99,,,-99.99,0.000000,,2013-08-01 09:53:00,
2013-08-01 06:22:00,62.0,61.0,29.95,WNW,294,0.0,-999.0,98,-99.99,,,-99.99,0.000000,,2013-08-01 10:22:00,
2013-08-01 06:42:00,62.0,61.0,29.95,WNW,292,6.0,-999.0,98,-99.99,,,-99.99,0.000000,,2013-08-01 10:42:00,
2013-08-01 06:55:00,63.0,62.0,29.95,WNW,293,3.0,-999.0,98,-99.99,,,-99.99,0.000000,,2013-08-01 10:55:00,
2013-08-01 07:08:00,63.0,62.0,29.95,WNW,290,4.0,-999.0,98,-99.99,,,-99.99,0.000000,,2013-08-01 11:08:00,
2013-08-01 07:21:00,63.0,62.0,29.96,WNW,298,8.0,-999.0,98,-99.99,,,-99.99,0.000000,,2013-08-01 11:21:00,
2013-08-01 07:35:00,62.0,61.0,29.96,WNW,303,9.0,-999.0,98,-99.99,,,-99.99,9.000000,,2013-08-01 11:35:00,
2013-08-01 07:48:00,62.0,61.0,29.96,NW,313,7.0,-999.0,98,-99.99,,,-99.99,16.000000,,2013-08-01 11:48:00,
2013-08-01 08:10:00,62.0,61.0,29.97,NW,320,7.0,-999.0,98,-99.99,,,-99.99,23.000000,,2013-08-01 12:10:00,
2013-08-01 08:21:00,62.0,61.0,29.97,NW,304,9.0,-999.0,98,-99.99,,,-99.99,30.000000,,2013-08-01 12:21:00,
2013-08-01 09:07:00,62.0,61.0,29.98,NW,305,4.0,-999.0,98,-99.99,,,-99.99,76.000000,,2013-08-01 13:07:00,
2013-08-01 09:21:00,62.0,61.0,29.98,NW,305,4.0,-999.0,98,-99.99,,,-99.99,76.000000,,2013-08-01 13:21:00,
2013-08-01 09:43:00,63.0,62.0,29.98,WNW,303,2.0,-999.0,97,-99.99,,,-99.99,267.000000,,2013-08-01 13:43:00,
2013-08-01 10:08:00,65.0,63.0,29.99,WNW,303,2.0,-999.0,93,-99.99,,,-99.99,336.000000,,2013-08-01 14:08:00,
2013-08-01 10:16:00,66.0,64.0,29.99,WNW,298,0.0,-999.0,92,-99.99,,,-99.99,341.000000,,2013-08-01 14:16:00,
2013-08-01 11:16:00,69.0,65.0,29.98,WNW,298,0.0,-999.0,87,-99.99,,,-99.99,577.000000,,2013-08-01 15:16:00,
2013-08-01 11:38:00,70.0,65.0,29.98,WNW,297,2.0,-999.0,85,-99.99,,,-99.99,550.000000,,2013-08-01 15:38:00,
2013-08-01 12:03:00,71.0,66.0,29.97,WNW,290,1.0,-999.0,84,-99.99,,,-99.99,550.000000,,2013-08-01 16:03:00,
2013-08-01 12:09:00,71.0,66.0,29.97,WNW,290,1.0,-999.0,84,-99.99,,,-99.99,550.000000,,2013-08-01 16:09:00,
2013-08-01 16:20:00,79.0,65.0,29.93,WNW,299,14.0,-999.0,62,-99.99,,,-99.99,258.000000,,2013-08-01 20:20:00,
2013-08-01 16:29:00,79.0,65.0,29.93,WNW,299,14.0,-999.0,62,-99.99,,,-99.99,258.000000,,2013-08-01 20:29:00,
2013-08-01 16:40:00,78.0,63.0,29.94,NW,310,13.0,-999.0,60,-99.99,,,-99.99,814.000000,,2013-08-01 20:40:00,
2013-08-01 16:49:00,78.0,63.0,29.94,NW,310,13.0,-999.0,60,-99.99,,,-99.99,814.000000,,2013-08-01 20:49:00,
2013-08-01 16:58:00,78.0,63.0,29.93,NW,319,12.0,-999.0,61,-99.99,,,-99.99,835.000000,,2013-08-01 20:58:00,
2013-08-01 17:04:00,77.0,63.0,29.94,NW,309,12.0,-999.0,62,-99.99,,,-99.99,721.000000,,2013-08-01 21:04:00,
2013-08-01 17:14:00,77.0,63.0,29.94,NW,309,12.0,-999.0,62,-99.99,,,-99.99,721.000000,,2013-08-01 21:14:00,
2013-08-01 17:43:00,78.0,62.0,29.94,WNW,285,14.0,-999.0,58,-99.99,,,-99.99,635.000000,,2013-08-01 21:43:00,
2013-08-01 17:53:00,78.0,61.0,29.94,WNW,284,13.0,-999.0,55,-99.99,,,-99.99,564.000000,,2013-08-01 21:53:00,
2013-08-01 18:09:00,78.0,61.0,29.94,WNW,284,13.0,-999.0,55,-99.99,,,-99.99,564.000000,,2013-08-01 22:09:00,
2013-08-01 18:17:00,78.0,61.0,29.94,WNW,299,12.0,-999.0,56,-99.99,,,-99.99,541.000000,,2013-08-01 22:17:00,
2013-08-01 18:23:00,78.0,61.0,29.94,NW,310,12.0,-999.0,56,-99.99,,,-99.99,496.000000,,2013-08-01 22:23:00,
2013-08-01 18:35:00,78.0,61.0,29.94,NW,306,10.0,-999.0,55,-99.99,,,-99.99,450.000000,,2013-08-01 22:35:00,
2013-08-01 18:46:00,78.0,61.0,29.94,NW,306,10.0,-999.0,55,-99.99,,,-99.99,450.000000,,2013-08-01 22:46:00,
2013-08-01 19:09:00,78.0,62.0,29.94,WNW,299,6.0,-999.0,57,-99.99,,,-99.99,399.000000,,2013-08-01 23:09:00,
2013-08-01 19:17:00,78.0,62.0,29.93,WNW,300,8.0,-999.0,57,-99.99,,,-99.99,350.000000,,2013-08-01 23:17:00,
2013-08-01 19:25:00,77.0,60.0,29.94,NW,311,8.0,-999.0,56,-99.99,,,-99.99,285.000000,,2013-08-01 23:25:00,
2013-08-01 19:33:00,77.0,61.0,29.93,WNW,300,7.0,-999.0,57,-99.99,,,-99.99,237.000000,,2013-08-01 23:33:00,
2013-08-01 19:49:00,77.0,61.0,29.93,WNW,300,7.0,-999.0,57,-99.99,,,-99.99,237.000000,,2013-08-01 23:49:00,
2013-08-01 20:01:00,77.0,62.0,29.93,NW,308,6.0,-999.0,59,-99.99,,,-99.99,199.000000,,2013-08-02 00:01:00,
2013-08-01 20:09:00,77.0,62.0,29.93,NW,308,6.0,-999.0,59,-99.99,,,-99.99,199.000000,,2013-08-02 00:09:00,
2013-08-01 20:19:00,77.0,62.0,29.93,NW,308,6.0,-999.0,59,-99.99,,,-99.99,199.000000,,2013-08-02 00:19:00,
2013-08-01 20:38:00,75.0,61.0,29.93,NW,311,0.0,-999.0,62,-99.99,,,-99.99,37.000000,,2013-08-02 00:38:00,
2013-08-01 21:01:00,75.0,62.0,29.93,NW,311,0.0,-999.0,65,-99.99,,,-99.99,32.000000,,2013-08-02 01:01:00,
2013-08-01 21:29:00,74.0,62.0,29.93,NW,311,0.0,-999.0,66,-99.99,,,-99.99,12.000000,,2013-08-02 01:29:00,
2013-08-01 21:48:00,72.0,62.0,29.95,NW,311,0.0,-999.0,72,-99.99,,,-99.99,0.000000,,2013-08-02 01:48:00,
2013-08-01 22:01:00,69.0,61.0,29.95,NW,311,0.0,-999.0,75,-99.99,,,-99.99,0.000000,,2013-08-02 02:01:00,
2013-08-01 22:09:00,68.0,61.0,29.95,NW,311,0.0,-999.0,77,-99.99,,,-99.99,0.000000,,2013-08-02 02:09:00,
2013-08-01 22:17:00,68.0,61.0,29.95,NW,311,0.0,-999.0,77,-99.99,,,-99.99,0.000000,,2013-08-02 02:17:00,
2013-08-01 22:35:00,66.0,60.0,29.96,NW,310,0.0,-999.0,80,-99.99,,,-99.99,0.000000,,2013-08-02 02:35:00,
2013-08-01 22:45:00,66.0,60.0,29.96,NW,310,0.0,-999.0,80,-99.99,,,-99.99,0.000000,,2013-08-02 02:45:00,
2013-08-01 22:54:00,66.0,60.0,29.96,NW,310,0.0,-999.0,80,-99.99,,,-99.99,0.000000,,2013-08-02 02:54:00,
2013-08-01 23:10:00,65.0,59.0,29.95,NW,310,0.0,-999.0,82,-99.99,,,-99.99,0.000000,,2013-08-02 03:10:00,
2013-08-01 23:38:00,63.0,58.0,29.96,NW,310,0.0,-999.0,84,-99.99,,,-99.99,0.000000,,2013-08-02 03:38:00,
2013-08-01 23:49:00,63.0,59.0,29.96,NW,311,0.0,-999.0,86,-99.99,,,-99.99,0.000000,,2013-08-02 03:49:00,
2013-08-01 23:56:00,63.0,59.0,29.96,NW,311,0.0,-999.0,86,-99.99,,,-99.99,0.000000,,2013-08-02 03:56:00,